sensor_id;sensor_type;location;lat;lon;timestamp;P1;durP1;ratioP1;P2;durP2;ratioP2
13230;SDS011;6681;53.254;10.398;2023-06-22T00:00:48;2.90;;;2.70;;
13230;SDS011;6681;53.254;10.398;2023-06-22T00:03:14;2.80;;;2.60;;
13230;SDS011;6681;53.254;10.398;2023-06-22T00:05:40;3.37;;;2.23;;
13230;SDS011;6681;53.254;10.398;2023-06-22T00:08:06;4.10;;;2.33;;
13230;SDS011;6681;53.254;10.398;2023-06-22T00:10:31;4.60;;;2.77;;
13230;SDS011;6681;53.254;10.398;2023-06-22T00:12:57;3.67;;;2.53;;
13230;SDS011;6681;53.254;10.398;2023-06-22T00:15:23;2.37;;;2.13;;
13230;SDS011;6681;53.254;10.398;2023-06-22T00:17:49;5.10;;;2.00;;
13230;SDS011;6681;53.254;10.398;2023-06-22T00:20:15;9.90;;;2.73;;
13230;SDS011;6681;53.254;10.398;2023-06-22T00:22:43;5.27;;;2.60;;
13230;SDS011;6681;53.254;10.398;2023-06-22T00:25:09;2.77;;;2.57;;
13230;SDS011;6681;53.254;10.398;2023-06-22T00:27:35;2.60;;;2.40;;
13230;SDS011;6681;53.254;10.398;2023-06-22T00:30:01;2.23;;;2.13;;
13230;SDS011;6681;53.254;10.398;2023-06-22T00:32:27;1.83;;;1.73;;
13230;SDS011;6681;53.254;10.398;2023-06-22T00:34:53;2.87;;;2.67;;
13230;SDS011;6681;53.254;10.398;2023-06-22T00:37:19;5.50;;;2.80;;
13230;SDS011;6681;53.254;10.398;2023-06-22T00:39:47;2.93;;;2.63;;
13230;SDS011;6681;53.254;10.398;2023-06-22T00:42:13;2.47;;;2.30;;
13230;SDS011;6681;53.254;10.398;2023-06-22T00:44:39;1.70;;;1.60;;
13230;SDS011;6681;53.254;10.398;2023-06-22T00:47:05;3.43;;;2.60;;
13230;SDS011;6681;53.254;10.398;2023-06-22T00:49:32;3.63;;;3.33;;
13230;SDS011;6681;53.254;10.398;2023-06-22T00:51:58;3.60;;;2.07;;
13230;SDS011;6681;53.254;10.398;2023-06-22T00:54:24;3.63;;;2.33;;
13230;SDS011;6681;53.254;10.398;2023-06-22T00:56:53;2.40;;;2.20;;
13230;SDS011;6681;53.254;10.398;2023-06-22T00:59:21;2.60;;;2.40;;
13230;SDS011;6681;53.254;10.398;2023-06-22T01:01:48;2.57;;;2.33;;
13230;SDS011;6681;53.254;10.398;2023-06-22T01:04:14;2.07;;;1.97;;
13230;SDS011;6681;53.254;10.398;2023-06-22T01:07:00;2.40;;;2.00;;
13230;SDS011;6681;53.254;10.398;2023-06-22T01:09:41;16.87;;;2.93;;
13230;SDS011;6681;53.254;10.398;2023-06-22T01:12:22;2.57;;;2.03;;
13230;SDS011;6681;53.254;10.398;2023-06-22T01:14:50;2.87;;;2.67;;
13230;SDS011;6681;53.254;10.398;2023-06-22T01:17:33;1.90;;;1.70;;
13230;SDS011;6681;53.254;10.398;2023-06-22T01:20:00;3.27;;;1.97;;
13230;SDS011;6681;53.254;10.398;2023-06-22T01:22:30;3.07;;;1.97;;
13230;SDS011;6681;53.254;10.398;2023-06-22T01:25:09;3.37;;;2.43;;
13230;SDS011;6681;53.254;10.398;2023-06-22T01:30:30;2.90;;;2.70;;
13230;SDS011;6681;53.254;10.398;2023-06-22T01:33:00;4.90;;;2.37;;
13230;SDS011;6681;53.254;10.398;2023-06-22T01:35:30;2.83;;;2.63;;
13230;SDS011;6681;53.254;10.398;2023-06-22T01:37:56;3.03;;;2.83;;
13230;SDS011;6681;53.254;10.398;2023-06-22T01:40:22;2.87;;;2.67;;
13230;SDS011;6681;53.254;10.398;2023-06-22T01:42:49;3.10;;;2.50;;
13230;SDS011;6681;53.254;10.398;2023-06-22T01:45:15;3.73;;;2.67;;
13230;SDS011;6681;53.254;10.398;2023-06-22T01:47:42;3.73;;;2.97;;
13230;SDS011;6681;53.254;10.398;2023-06-22T01:50:08;2.73;;;2.20;;
13230;SDS011;6681;53.254;10.398;2023-06-22T01:52:34;3.10;;;2.80;;
13230;SDS011;6681;53.254;10.398;2023-06-22T01:55:00;3.50;;;2.83;;
13230;SDS011;6681;53.254;10.398;2023-06-22T01:57:26;2.43;;;2.17;;
13230;SDS011;6681;53.254;10.398;2023-06-22T02:02:37;2.17;;;2.07;;
13230;SDS011;6681;53.254;10.398;2023-06-22T02:05:11;4.90;;;2.67;;
13230;SDS011;6681;53.254;10.398;2023-06-22T02:07:44;3.07;;;2.77;;
13230;SDS011;6681;53.254;10.398;2023-06-22T02:10:14;3.13;;;1.90;;
13230;SDS011;6681;53.254;10.398;2023-06-22T02:12:41;2.90;;;2.60;;
13230;SDS011;6681;53.254;10.398;2023-06-22T02:15:09;2.50;;;2.30;;
13230;SDS011;6681;53.254;10.398;2023-06-22T02:17:37;4.03;;;2.80;;
13230;SDS011;6681;53.254;10.398;2023-06-22T02:20:03;2.63;;;2.43;;
13230;SDS011;6681;53.254;10.398;2023-06-22T02:22:32;2.70;;;2.50;;
13230;SDS011;6681;53.254;10.398;2023-06-22T02:24:58;2.70;;;2.50;;
13230;SDS011;6681;53.254;10.398;2023-06-22T02:27:24;2.97;;;2.50;;
13230;SDS011;6681;53.254;10.398;2023-06-22T02:29:49;4.73;;;3.33;;
13230;SDS011;6681;53.254;10.398;2023-06-22T02:32:15;10.37;;;4.23;;
13230;SDS011;6681;53.254;10.398;2023-06-22T02:34:42;2.83;;;2.63;;
13230;SDS011;6681;53.254;10.398;2023-06-22T02:37:12;2.90;;;2.50;;
13230;SDS011;6681;53.254;10.398;2023-06-22T02:39:39;3.37;;;3.17;;
13230;SDS011;6681;53.254;10.398;2023-06-22T02:42:05;4.03;;;3.10;;
13230;SDS011;6681;53.254;10.398;2023-06-22T02:44:31;3.30;;;2.53;;
13230;SDS011;6681;53.254;10.398;2023-06-22T02:46:57;3.23;;;2.93;;
13230;SDS011;6681;53.254;10.398;2023-06-22T02:49:23;2.60;;;2.40;;
13230;SDS011;6681;53.254;10.398;2023-06-22T02:51:49;3.20;;;2.73;;
13230;SDS011;6681;53.254;10.398;2023-06-22T02:54:15;5.83;;;3.70;;
13230;SDS011;6681;53.254;10.398;2023-06-22T02:56:41;2.67;;;2.47;;
13230;SDS011;6681;53.254;10.398;2023-06-22T02:59:09;3.33;;;3.03;;
13230;SDS011;6681;53.254;10.398;2023-06-22T03:01:35;7.33;;;2.97;;
13230;SDS011;6681;53.254;10.398;2023-06-22T03:04:05;3.93;;;3.50;;
13230;SDS011;6681;53.254;10.398;2023-06-22T03:06:31;3.43;;;3.13;;
13230;SDS011;6681;53.254;10.398;2023-06-22T03:09:00;3.43;;;3.13;;
13230;SDS011;6681;53.254;10.398;2023-06-22T03:11:29;7.60;;;4.40;;
13230;SDS011;6681;53.254;10.398;2023-06-22T03:13:56;3.77;;;3.47;;
13230;SDS011;6681;53.254;10.398;2023-06-22T03:16:21;4.03;;;3.73;;
13230;SDS011;6681;53.254;10.398;2023-06-22T03:18:47;2.87;;;2.67;;
13230;SDS011;6681;53.254;10.398;2023-06-22T03:21:13;3.17;;;2.97;;
13230;SDS011;6681;53.254;10.398;2023-06-22T03:23:40;2.83;;;2.57;;
13230;SDS011;6681;53.254;10.398;2023-06-22T03:26:06;5.03;;;3.30;;
13230;SDS011;6681;53.254;10.398;2023-06-22T03:28:33;3.83;;;2.97;;
13230;SDS011;6681;53.254;10.398;2023-06-22T03:30:59;3.00;;;2.80;;
13230;SDS011;6681;53.254;10.398;2023-06-22T03:33:24;3.77;;;3.07;;
13230;SDS011;6681;53.254;10.398;2023-06-22T03:35:50;3.70;;;3.17;;
13230;SDS011;6681;53.254;10.398;2023-06-22T03:38:16;3.70;;;2.87;;
13230;SDS011;6681;53.254;10.398;2023-06-22T03:40:42;3.07;;;2.83;;
13230;SDS011;6681;53.254;10.398;2023-06-22T03:43:08;3.53;;;3.23;;
13230;SDS011;6681;53.254;10.398;2023-06-22T03:45:34;3.27;;;2.97;;
13230;SDS011;6681;53.254;10.398;2023-06-22T03:48:00;3.50;;;3.20;;
13230;SDS011;6681;53.254;10.398;2023-06-22T03:50:26;3.67;;;3.30;;
13230;SDS011;6681;53.254;10.398;2023-06-22T03:52:52;2.60;;;2.40;;
13230;SDS011;6681;53.254;10.398;2023-06-22T03:55:19;3.37;;;3.07;;
13230;SDS011;6681;53.254;10.398;2023-06-22T03:57:45;3.07;;;2.87;;
13230;SDS011;6681;53.254;10.398;2023-06-22T04:00:11;2.90;;;2.70;;
13230;SDS011;6681;53.254;10.398;2023-06-22T04:02:37;2.73;;;2.50;;
13230;SDS011;6681;53.254;10.398;2023-06-22T04:05:02;4.33;;;3.00;;
13230;SDS011;6681;53.254;10.398;2023-06-22T04:07:28;3.13;;;2.93;;
13230;SDS011;6681;53.254;10.398;2023-06-22T04:09:54;4.20;;;3.80;;
13230;SDS011;6681;53.254;10.398;2023-06-22T04:12:19;3.73;;;3.40;;
13230;SDS011;6681;53.254;10.398;2023-06-22T04:14:45;3.90;;;3.57;;
13230;SDS011;6681;53.254;10.398;2023-06-22T04:17:11;3.63;;;3.33;;
13230;SDS011;6681;53.254;10.398;2023-06-22T04:19:39;4.27;;;2.90;;
13230;SDS011;6681;53.254;10.398;2023-06-22T04:22:05;3.20;;;3.00;;
13230;SDS011;6681;53.254;10.398;2023-06-22T04:24:32;4.77;;;3.30;;
13230;SDS011;6681;53.254;10.398;2023-06-22T04:26:58;7.27;;;3.80;;
13230;SDS011;6681;53.254;10.398;2023-06-22T04:29:29;4.93;;;3.70;;
13230;SDS011;6681;53.254;10.398;2023-06-22T04:31:58;2.70;;;2.50;;
13230;SDS011;6681;53.254;10.398;2023-06-22T04:34:27;2.77;;;2.57;;
13230;SDS011;6681;53.254;10.398;2023-06-22T04:36:53;5.07;;;3.97;;
13230;SDS011;6681;53.254;10.398;2023-06-22T04:39:19;4.80;;;4.40;;
13230;SDS011;6681;53.254;10.398;2023-06-22T04:41:45;6.50;;;5.77;;
13230;SDS011;6681;53.254;10.398;2023-06-22T04:44:11;4.63;;;4.20;;
13230;SDS011;6681;53.254;10.398;2023-06-22T04:46:37;5.37;;;4.43;;
13230;SDS011;6681;53.254;10.398;2023-06-22T04:49:07;6.97;;;4.40;;
13230;SDS011;6681;53.254;10.398;2023-06-22T04:51:40;5.43;;;4.53;;
13230;SDS011;6681;53.254;10.398;2023-06-22T04:54:06;5.30;;;3.60;;
13230;SDS011;6681;53.254;10.398;2023-06-22T04:56:33;6.93;;;4.70;;
13230;SDS011;6681;53.254;10.398;2023-06-22T04:58:59;6.63;;;4.70;;
13230;SDS011;6681;53.254;10.398;2023-06-22T05:01:25;6.00;;;3.70;;
13230;SDS011;6681;53.254;10.398;2023-06-22T05:03:51;7.93;;;6.13;;
13230;SDS011;6681;53.254;10.398;2023-06-22T05:06:25;6.47;;;4.40;;
13230;SDS011;6681;53.254;10.398;2023-06-22T05:08:53;4.27;;;3.83;;
13230;SDS011;6681;53.254;10.398;2023-06-22T05:11:26;6.13;;;4.57;;
13230;SDS011;6681;53.254;10.398;2023-06-22T05:13:52;11.60;;;4.13;;
13230;SDS011;6681;53.254;10.398;2023-06-22T05:16:19;4.37;;;3.83;;
13230;SDS011;6681;53.254;10.398;2023-06-22T05:18:52;6.63;;;4.27;;
13230;SDS011;6681;53.254;10.398;2023-06-22T05:21:21;6.57;;;3.43;;
13230;SDS011;6681;53.254;10.398;2023-06-22T05:23:52;3.67;;;3.33;;
13230;SDS011;6681;53.254;10.398;2023-06-22T05:26:19;4.73;;;4.23;;
13230;SDS011;6681;53.254;10.398;2023-06-22T05:28:45;4.37;;;3.43;;
13230;SDS011;6681;53.254;10.398;2023-06-22T05:31:14;4.77;;;3.97;;
13230;SDS011;6681;53.254;10.398;2023-06-22T05:33:41;4.20;;;3.37;;
13230;SDS011;6681;53.254;10.398;2023-06-22T05:36:08;4.10;;;3.77;;
13230;SDS011;6681;53.254;10.398;2023-06-22T05:38:34;5.83;;;3.63;;
13230;SDS011;6681;53.254;10.398;2023-06-22T05:41:00;4.67;;;4.20;;
13230;SDS011;6681;53.254;10.398;2023-06-22T05:43:25;4.70;;;4.30;;
13230;SDS011;6681;53.254;10.398;2023-06-22T05:45:51;5.17;;;3.13;;
13230;SDS011;6681;53.254;10.398;2023-06-22T05:48:16;7.90;;;4.53;;
13230;SDS011;6681;53.254;10.398;2023-06-22T05:50:42;5.67;;;4.67;;
13230;SDS011;6681;53.254;10.398;2023-06-22T05:53:08;4.10;;;3.37;;
13230;SDS011;6681;53.254;10.398;2023-06-22T05:55:34;4.53;;;4.13;;
13230;SDS011;6681;53.254;10.398;2023-06-22T05:57:59;5.23;;;4.00;;
13230;SDS011;6681;53.254;10.398;2023-06-22T06:00:25;5.90;;;4.60;;
13230;SDS011;6681;53.254;10.398;2023-06-22T06:02:51;3.47;;;2.97;;
13230;SDS011;6681;53.254;10.398;2023-06-22T06:05:16;4.53;;;3.30;;
13230;SDS011;6681;53.254;10.398;2023-06-22T06:07:43;7.90;;;4.37;;
13230;SDS011;6681;53.254;10.398;2023-06-22T06:10:09;4.77;;;3.20;;
13230;SDS011;6681;53.254;10.398;2023-06-22T06:12:35;4.03;;;3.63;;
13230;SDS011;6681;53.254;10.398;2023-06-22T06:15:01;4.73;;;4.23;;
13230;SDS011;6681;53.254;10.398;2023-06-22T06:17:28;4.53;;;3.30;;
13230;SDS011;6681;53.254;10.398;2023-06-22T06:19:53;7.50;;;3.40;;
13230;SDS011;6681;53.254;10.398;2023-06-22T06:22:19;4.87;;;3.60;;
13230;SDS011;6681;53.254;10.398;2023-06-22T06:24:46;7.90;;;3.20;;
13230;SDS011;6681;53.254;10.398;2023-06-22T06:27:12;3.97;;;3.30;;
13230;SDS011;6681;53.254;10.398;2023-06-22T06:29:38;5.33;;;3.07;;
13230;SDS011;6681;53.254;10.398;2023-06-22T06:32:04;4.07;;;3.40;;
13230;SDS011;6681;53.254;10.398;2023-06-22T06:34:30;5.37;;;3.47;;
13230;SDS011;6681;53.254;10.398;2023-06-22T06:36:55;7.30;;;3.70;;
13230;SDS011;6681;53.254;10.398;2023-06-22T06:39:21;4.30;;;3.90;;
13230;SDS011;6681;53.254;10.398;2023-06-22T06:41:47;3.93;;;3.43;;
13230;SDS011;6681;53.254;10.398;2023-06-22T06:44:13;4.40;;;4.00;;
13230;SDS011;6681;53.254;10.398;2023-06-22T06:46:38;4.93;;;4.07;;
13230;SDS011;6681;53.254;10.398;2023-06-22T06:49:04;4.37;;;3.17;;
13230;SDS011;6681;53.254;10.398;2023-06-22T06:51:30;4.10;;;3.00;;
13230;SDS011;6681;53.254;10.398;2023-06-22T06:53:55;4.67;;;3.33;;
13230;SDS011;6681;53.254;10.398;2023-06-22T06:56:21;6.67;;;3.30;;
13230;SDS011;6681;53.254;10.398;2023-06-22T06:58:47;6.27;;;3.07;;
13230;SDS011;6681;53.254;10.398;2023-06-22T07:01:14;5.00;;;2.77;;
13230;SDS011;6681;53.254;10.398;2023-06-22T07:03:40;3.67;;;3.37;;
13230;SDS011;6681;53.254;10.398;2023-06-22T07:06:06;6.90;;;3.43;;
13230;SDS011;6681;53.254;10.398;2023-06-22T07:08:31;4.13;;;2.87;;
13230;SDS011;6681;53.254;10.398;2023-06-22T07:10:57;3.43;;;3.13;;
13230;SDS011;6681;53.254;10.398;2023-06-22T07:13:23;6.30;;;3.53;;
13230;SDS011;6681;53.254;10.398;2023-06-22T07:15:48;2.97;;;2.77;;
13230;SDS011;6681;53.254;10.398;2023-06-22T07:18:14;4.37;;;4.03;;
13230;SDS011;6681;53.254;10.398;2023-06-22T07:20:39;7.90;;;4.30;;
13230;SDS011;6681;53.254;10.398;2023-06-22T07:23:06;7.40;;;3.40;;
13230;SDS011;6681;53.254;10.398;2023-06-22T07:25:31;3.60;;;3.07;;
13230;SDS011;6681;53.254;10.398;2023-06-22T07:30:24;3.50;;;3.23;;
13230;SDS011;6681;53.254;10.398;2023-06-22T07:32:50;3.50;;;3.00;;
13230;SDS011;6681;53.254;10.398;2023-06-22T07:35:15;2.63;;;2.53;;
13230;SDS011;6681;53.254;10.398;2023-06-22T07:37:41;3.00;;;2.80;;
13230;SDS011;6681;53.254;10.398;2023-06-22T07:40:07;4.70;;;2.67;;
13230;SDS011;6681;53.254;10.398;2023-06-22T07:42:34;4.73;;;3.27;;
13230;SDS011;6681;53.254;10.398;2023-06-22T07:44:59;2.87;;;2.67;;
13230;SDS011;6681;53.254;10.398;2023-06-22T07:47:25;5.33;;;2.63;;
13230;SDS011;6681;53.254;10.398;2023-06-22T07:49:53;3.30;;;3.03;;
13230;SDS011;6681;53.254;10.398;2023-06-22T07:52:23;3.47;;;3.17;;
13230;SDS011;6681;53.254;10.398;2023-06-22T07:54:50;3.03;;;2.77;;
13230;SDS011;6681;53.254;10.398;2023-06-22T07:57:16;2.87;;;2.63;;
13230;SDS011;6681;53.254;10.398;2023-06-22T07:59:41;3.67;;;2.80;;
13230;SDS011;6681;53.254;10.398;2023-06-22T08:02:07;4.63;;;3.47;;
13230;SDS011;6681;53.254;10.398;2023-06-22T08:04:34;5.00;;;3.43;;
13230;SDS011;6681;53.254;10.398;2023-06-22T08:07:00;5.17;;;3.63;;
13230;SDS011;6681;53.254;10.398;2023-06-22T08:09:27;3.57;;;3.27;;
13230;SDS011;6681;53.254;10.398;2023-06-22T08:11:54;3.53;;;2.17;;
13230;SDS011;6681;53.254;10.398;2023-06-22T08:14:21;3.33;;;3.03;;
13230;SDS011;6681;53.254;10.398;2023-06-22T08:16:48;5.13;;;3.77;;
13230;SDS011;6681;53.254;10.398;2023-06-22T08:19:13;4.23;;;2.67;;
13230;SDS011;6681;53.254;10.398;2023-06-22T08:21:39;5.53;;;2.97;;
13230;SDS011;6681;53.254;10.398;2023-06-22T08:24:05;2.80;;;2.57;;
13230;SDS011;6681;53.254;10.398;2023-06-22T08:26:32;3.27;;;2.90;;
13230;SDS011;6681;53.254;10.398;2023-06-22T08:29:01;4.03;;;3.70;;
13230;SDS011;6681;53.254;10.398;2023-06-22T08:31:27;5.27;;;3.27;;
13230;SDS011;6681;53.254;10.398;2023-06-22T08:33:52;7.60;;;2.80;;
13230;SDS011;6681;53.254;10.398;2023-06-22T08:36:18;3.53;;;2.23;;
13230;SDS011;6681;53.254;10.398;2023-06-22T08:38:44;2.53;;;2.33;;
13230;SDS011;6681;53.254;10.398;2023-06-22T08:41:10;3.23;;;2.93;;
13230;SDS011;6681;53.254;10.398;2023-06-22T08:43:35;5.30;;;2.73;;
13230;SDS011;6681;53.254;10.398;2023-06-22T08:46:01;4.07;;;3.00;;
13230;SDS011;6681;53.254;10.398;2023-06-22T08:48:27;3.30;;;3.00;;
13230;SDS011;6681;53.254;10.398;2023-06-22T08:50:53;5.17;;;2.77;;
13230;SDS011;6681;53.254;10.398;2023-06-22T08:53:19;3.27;;;2.57;;
13230;SDS011;6681;53.254;10.398;2023-06-22T08:55:45;6.00;;;2.90;;
13230;SDS011;6681;53.254;10.398;2023-06-22T08:58:10;4.10;;;3.53;;
13230;SDS011;6681;53.254;10.398;2023-06-22T09:00:36;3.07;;;2.77;;
13230;SDS011;6681;53.254;10.398;2023-06-22T09:03:02;3.00;;;2.53;;
13230;SDS011;6681;53.254;10.398;2023-06-22T09:05:28;2.67;;;2.47;;
13230;SDS011;6681;53.254;10.398;2023-06-22T09:07:55;2.77;;;2.57;;
13230;SDS011;6681;53.254;10.398;2023-06-22T09:10:21;4.93;;;2.70;;
13230;SDS011;6681;53.254;10.398;2023-06-22T09:12:47;3.13;;;2.83;;
13230;SDS011;6681;53.254;10.398;2023-06-22T09:15:13;3.17;;;2.57;;
13230;SDS011;6681;53.254;10.398;2023-06-22T09:17:40;5.30;;;2.17;;
13230;SDS011;6681;53.254;10.398;2023-06-22T09:20:06;5.10;;;2.90;;
13230;SDS011;6681;53.254;10.398;2023-06-22T09:22:35;4.10;;;2.30;;
13230;SDS011;6681;53.254;10.398;2023-06-22T09:25:01;3.93;;;3.53;;
13230;SDS011;6681;53.254;10.398;2023-06-22T09:27:28;2.67;;;2.47;;
13230;SDS011;6681;53.254;10.398;2023-06-22T09:29:53;2.87;;;2.30;;
13230;SDS011;6681;53.254;10.398;2023-06-22T09:32:19;4.10;;;2.70;;
13230;SDS011;6681;53.254;10.398;2023-06-22T09:34:45;2.30;;;2.20;;
13230;SDS011;6681;53.254;10.398;2023-06-22T09:37:10;2.63;;;1.98;;
13230;SDS011;6681;53.254;10.398;2023-06-22T09:39:37;3.97;;;2.57;;
13230;SDS011;6681;53.254;10.398;2023-06-22T09:42:02;2.37;;;2.20;;
13230;SDS011;6681;53.254;10.398;2023-06-22T09:44:30;5.53;;;2.30;;
13230;SDS011;6681;53.254;10.398;2023-06-22T09:46:56;2.70;;;2.30;;
13230;SDS011;6681;53.254;10.398;2023-06-22T09:49:22;2.37;;;2.20;;
13230;SDS011;6681;53.254;10.398;2023-06-22T09:51:47;3.67;;;2.67;;
13230;SDS011;6681;53.254;10.398;2023-06-22T09:54:14;2.85;;;2.28;;
13230;SDS011;6681;53.254;10.398;2023-06-22T09:56:40;2.55;;;2.35;;
13230;SDS011;6681;53.254;10.398;2023-06-22T09:59:06;2.63;;;2.42;;
13230;SDS011;6681;53.254;10.398;2023-06-22T10:01:31;6.10;;;2.17;;
13230;SDS011;6681;53.254;10.398;2023-06-22T10:03:57;2.23;;;2.00;;
13230;SDS011;6681;53.254;10.398;2023-06-22T10:06:23;3.15;;;2.40;;
13230;SDS011;6681;53.254;10.398;2023-06-22T10:08:50;2.47;;;2.38;;
13230;SDS011;6681;53.254;10.398;2023-06-22T10:11:16;3.33;;;2.37;;
13230;SDS011;6681;53.254;10.398;2023-06-22T10:13:42;4.78;;;2.63;;
13230;SDS011;6681;53.254;10.398;2023-06-22T10:16:08;2.38;;;2.17;;
13230;SDS011;6681;53.254;10.398;2023-06-22T10:18:33;2.35;;;2.15;;
13230;SDS011;6681;53.254;10.398;2023-06-22T10:20:59;2.38;;;2.17;;
13230;SDS011;6681;53.254;10.398;2023-06-22T10:23:25;4.03;;;2.50;;
13230;SDS011;6681;53.254;10.398;2023-06-22T10:25:51;3.58;;;3.03;;
13230;SDS011;6681;53.254;10.398;2023-06-22T10:28:16;3.17;;;2.97;;
13230;SDS011;6681;53.254;10.398;2023-06-22T10:30:42;5.60;;;2.53;;
13230;SDS011;6681;53.254;10.398;2023-06-22T10:33:08;3.53;;;2.53;;
13230;SDS011;6681;53.254;10.398;2023-06-22T10:35:35;3.38;;;2.60;;
13230;SDS011;6681;53.254;10.398;2023-06-22T10:38:02;4.78;;;3.30;;
13230;SDS011;6681;53.254;10.398;2023-06-22T10:40:29;3.20;;;2.90;;
13230;SDS011;6681;53.254;10.398;2023-06-22T10:42:55;3.47;;;3.17;;
13230;SDS011;6681;53.254;10.398;2023-06-22T10:45:20;3.65;;;3.35;;
13230;SDS011;6681;53.254;10.398;2023-06-22T10:47:46;6.93;;;4.30;;
13230;SDS011;6681;53.254;10.398;2023-06-22T10:50:12;4.50;;;3.40;;
13230;SDS011;6681;53.254;10.398;2023-06-22T10:52:37;3.63;;;3.33;;
13230;SDS011;6681;53.254;10.398;2023-06-22T10:55:03;4.03;;;2.80;;
13230;SDS011;6681;53.254;10.398;2023-06-22T10:57:29;2.63;;;2.42;;
13230;SDS011;6681;53.254;10.398;2023-06-22T10:59:55;3.42;;;3.22;;
13230;SDS011;6681;53.254;10.398;2023-06-22T11:02:20;3.30;;;3.13;;
13230;SDS011;6681;53.254;10.398;2023-06-22T11:04:46;3.00;;;2.67;;
13230;SDS011;6681;53.254;10.398;2023-06-22T11:07:12;4.65;;;4.30;;
13230;SDS011;6681;53.254;10.398;2023-06-22T11:09:38;6.50;;;3.38;;
13230;SDS011;6681;53.254;10.398;2023-06-22T11:12:04;7.53;;;3.38;;
13230;SDS011;6681;53.254;10.398;2023-06-22T11:14:31;5.05;;;3.30;;
13230;SDS011;6681;53.254;10.398;2023-06-22T11:16:58;4.10;;;3.80;;
13230;SDS011;6681;53.254;10.398;2023-06-22T11:19:24;5.60;;;3.60;;
13230;SDS011;6681;53.254;10.398;2023-06-22T11:21:50;3.20;;;2.92;;
13230;SDS011;6681;53.254;10.398;2023-06-22T11:24:16;3.67;;;3.38;;
13230;SDS011;6681;53.254;10.398;2023-06-22T11:26:42;5.95;;;3.78;;
13230;SDS011;6681;53.254;10.398;2023-06-22T11:29:08;3.50;;;3.08;;
13230;SDS011;6681;53.254;10.398;2023-06-22T11:31:36;3.72;;;3.40;;
13230;SDS011;6681;53.254;10.398;2023-06-22T11:34:03;4.22;;;2.90;;
13230;SDS011;6681;53.254;10.398;2023-06-22T11:36:29;3.42;;;3.13;;
13230;SDS011;6681;53.254;10.398;2023-06-22T11:38:57;5.03;;;2.78;;
13230;SDS011;6681;53.254;10.398;2023-06-22T11:41:23;3.10;;;2.90;;
13230;SDS011;6681;53.254;10.398;2023-06-22T11:43:49;3.53;;;3.25;;
13230;SDS011;6681;53.254;10.398;2023-06-22T11:46:14;5.53;;;3.35;;
13230;SDS011;6681;53.254;10.398;2023-06-22T11:48:40;3.42;;;3.17;;
13230;SDS011;6681;53.254;10.398;2023-06-22T11:51:06;5.13;;;3.17;;
13230;SDS011;6681;53.254;10.398;2023-06-22T11:53:33;3.78;;;3.47;;
13230;SDS011;6681;53.254;10.398;2023-06-22T11:56:00;3.25;;;3.00;;
13230;SDS011;6681;53.254;10.398;2023-06-22T11:58:26;3.50;;;3.30;;
13230;SDS011;6681;53.254;10.398;2023-06-22T12:00:52;3.53;;;3.22;;
13230;SDS011;6681;53.254;10.398;2023-06-22T12:03:19;4.15;;;3.40;;
13230;SDS011;6681;53.254;10.398;2023-06-22T12:05:46;4.65;;;3.42;;
13230;SDS011;6681;53.254;10.398;2023-06-22T12:08:12;3.22;;;2.90;;
13230;SDS011;6681;53.254;10.398;2023-06-22T12:10:38;4.13;;;3.83;;
13230;SDS011;6681;53.254;10.398;2023-06-22T12:13:04;4.82;;;4.07;;
13230;SDS011;6681;53.254;10.398;2023-06-22T12:15:30;3.35;;;3.15;;
13230;SDS011;6681;53.254;10.398;2023-06-22T12:17:55;3.80;;;3.50;;
13230;SDS011;6681;53.254;10.398;2023-06-22T12:20:21;3.38;;;3.17;;
13230;SDS011;6681;53.254;10.398;2023-06-22T12:22:47;4.25;;;3.28;;
13230;SDS011;6681;53.254;10.398;2023-06-22T12:25:13;4.18;;;3.78;;
13230;SDS011;6681;53.254;10.398;2023-06-22T12:27:38;4.78;;;4.32;;
13230;SDS011;6681;53.254;10.398;2023-06-22T12:30:04;4.45;;;3.28;;
13230;SDS011;6681;53.254;10.398;2023-06-22T12:32:30;3.95;;;3.65;;
13230;SDS011;6681;53.254;10.398;2023-06-22T12:34:56;4.28;;;3.97;;
13230;SDS011;6681;53.254;10.398;2023-06-22T12:37:22;6.60;;;3.65;;
13230;SDS011;6681;53.254;10.398;2023-06-22T12:39:48;5.13;;;4.72;;
13230;SDS011;6681;53.254;10.398;2023-06-22T12:42:17;4.90;;;4.50;;
13230;SDS011;6681;53.254;10.398;2023-06-22T12:44:43;4.95;;;4.45;;
13230;SDS011;6681;53.254;10.398;2023-06-22T12:47:09;4.55;;;4.25;;
13230;SDS011;6681;53.254;10.398;2023-06-22T12:49:35;5.28;;;4.50;;
13230;SDS011;6681;53.254;10.398;2023-06-22T12:52:01;3.65;;;3.25;;
13230;SDS011;6681;53.254;10.398;2023-06-22T12:54:27;3.92;;;3.35;;
13230;SDS011;6681;53.254;10.398;2023-06-22T12:56:54;4.03;;;3.38;;
13230;SDS011;6681;53.254;10.398;2023-06-22T12:59:20;3.17;;;2.97;;
13230;SDS011;6681;53.254;10.398;2023-06-22T13:01:45;3.95;;;3.65;;
13230;SDS011;6681;53.254;10.398;2023-06-22T13:04:11;4.60;;;3.67;;
13230;SDS011;6681;53.254;10.398;2023-06-22T13:06:43;4.82;;;3.75;;
13230;SDS011;6681;53.254;10.398;2023-06-22T13:09:12;3.65;;;3.33;;
13230;SDS011;6681;53.254;10.398;2023-06-22T13:11:44;4.13;;;3.72;;
13230;SDS011;6681;53.254;10.398;2023-06-22T13:14:10;3.38;;;2.65;;
13230;SDS011;6681;53.254;10.398;2023-06-22T13:16:36;5.82;;;4.05;;
13230;SDS011;6681;53.254;10.398;2023-06-22T13:19:01;5.03;;;3.80;;
13230;SDS011;6681;53.254;10.398;2023-06-22T13:21:27;3.65;;;3.35;;
13230;SDS011;6681;53.254;10.398;2023-06-22T13:23:53;4.00;;;3.63;;
13230;SDS011;6681;53.254;10.398;2023-06-22T13:26:20;5.55;;;4.13;;
13230;SDS011;6681;53.254;10.398;2023-06-22T13:28:46;4.55;;;4.15;;
13230;SDS011;6681;53.254;10.398;2023-06-22T13:31:11;3.60;;;3.30;;
13230;SDS011;6681;53.254;10.398;2023-06-22T13:33:37;6.57;;;3.78;;
13230;SDS011;6681;53.254;10.398;2023-06-22T13:36:03;5.47;;;3.78;;
13230;SDS011;6681;53.254;10.398;2023-06-22T13:38:31;3.78;;;3.47;;
13230;SDS011;6681;53.254;10.398;2023-06-22T13:40:57;4.38;;;3.97;;
13230;SDS011;6681;53.254;10.398;2023-06-22T13:43:24;5.10;;;4.45;;
13230;SDS011;6681;53.254;10.398;2023-06-22T13:45:51;6.47;;;5.05;;
13230;SDS011;6681;53.254;10.398;2023-06-22T13:48:17;4.53;;;4.13;;
13230;SDS011;6681;53.254;10.398;2023-06-22T13:50:43;6.18;;;4.38;;
13230;SDS011;6681;53.254;10.398;2023-06-22T13:53:08;3.53;;;3.20;;
13230;SDS011;6681;53.254;10.398;2023-06-22T13:55:34;4.53;;;4.00;;
13230;SDS011;6681;53.254;10.398;2023-06-22T13:58:00;4.30;;;4.00;;
13230;SDS011;6681;53.254;10.398;2023-06-22T14:00:25;4.35;;;4.05;;
13230;SDS011;6681;53.254;10.398;2023-06-22T14:02:52;4.40;;;4.00;;
13230;SDS011;6681;53.254;10.398;2023-06-22T14:05:18;4.10;;;3.80;;
13230;SDS011;6681;53.254;10.398;2023-06-22T14:07:45;5.53;;;4.60;;
13230;SDS011;6681;53.254;10.398;2023-06-22T14:10:11;4.32;;;4.00;;
13230;SDS011;6681;53.254;10.398;2023-06-22T14:12:36;4.45;;;4.03;;
13230;SDS011;6681;53.254;10.398;2023-06-22T14:15:02;4.28;;;3.90;;
13230;SDS011;6681;53.254;10.398;2023-06-22T14:17:28;7.53;;;3.63;;
13230;SDS011;6681;53.254;10.398;2023-06-22T14:19:54;3.67;;;3.40;;
13230;SDS011;6681;53.254;10.398;2023-06-22T14:22:20;4.57;;;4.18;;
13230;SDS011;6681;53.254;10.398;2023-06-22T14:24:47;3.83;;;3.63;;
13230;SDS011;6681;53.254;10.398;2023-06-22T14:27:13;4.65;;;3.53;;
13230;SDS011;6681;53.254;10.398;2023-06-22T14:29:39;5.13;;;4.72;;
13230;SDS011;6681;53.254;10.398;2023-06-22T14:32:05;5.13;;;4.63;;
13230;SDS011;6681;53.254;10.398;2023-06-22T14:34:32;4.38;;;3.38;;
13230;SDS011;6681;53.254;10.398;2023-06-22T14:37:00;4.05;;;3.75;;
13230;SDS011;6681;53.254;10.398;2023-06-22T14:39:30;4.55;;;4.20;;
13230;SDS011;6681;53.254;10.398;2023-06-22T14:41:56;3.67;;;3.45;;
13230;SDS011;6681;53.254;10.398;2023-06-22T14:44:21;6.63;;;5.18;;
13230;SDS011;6681;53.254;10.398;2023-06-22T14:46:47;3.70;;;3.50;;
13230;SDS011;6681;53.254;10.398;2023-06-22T14:49:13;4.10;;;3.80;;
13230;SDS011;6681;53.254;10.398;2023-06-22T14:51:38;6.82;;;4.20;;